Погода Дулинона неделю

Витебская область, Белоруссия

23 - 29 мая
  • 23мая
    Сегодня
    +13°
    +25°
    Небольшая облачность
    ВремяПогодаТемператураВлажностьДавлениеВетер, м/сВероятность осадков
    00:00Ясно и безоблачно+15°C91 %752 мм1.3 м/с2 %
    03:00Ясно и безоблачно+14°C93 %752 мм1.3 м/с2 %
    06:00Ясно и безоблачно+14°C93 %752 мм1.9 м/с2 %
    09:00Облачно с прояснениями+19°C81 %754 мм2.5 м/с8 %
    12:00Практически безоблачно+23°C67 %754 мм3.5 м/с22 %
    15:00Небольшая облачность+25°C61 %754 мм4.0 м/с18 %
    18:00Небольшая облачность, возможен дождь с грозой+22°C78 %755 мм2.8 м/с48 %
    21:00Практически безоблачно+20°C75 %755 мм2.2 м/с4 %
  • 24мая
    Пятница
    +11°
    +25°
    Ясно и безоблачно
    ВремяПогодаТемператураВлажностьДавлениеВетер, м/сВероятность осадков
    00:00Облачно с прояснениями+16°C79 %755 мм1.9 м/с2 %
    03:00Облачно с прояснениями+14°C65 %756 мм1.9 м/с2 %
    06:00Небольшая облачность+13°C67 %757 мм1.9 м/с2 %
    09:00Ясно и безоблачно+17°C61 %757 мм2.6 м/с2 %
    12:00Ясно и безоблачно+23°C52 %758 мм3.5 м/с2 %
    15:00Ясно и безоблачно+24°C46 %757 мм3.7 м/с2 %
    18:00Ясно и безоблачно+23°C47 %757 мм3.1 м/с2 %
    21:00Ясно и безоблачно+19°C62 %756 мм2.2 м/с2 %
  • 25мая
    Суббота
    +10°
    +26°
    Практически безоблачно
    ВремяПогодаТемператураВлажностьДавлениеВетер, м/сВероятность осадков
    00:00Ясно и безоблачно+16°C64 %757 мм1.8 м/с2 %
    03:00Ясно и безоблачно+13°C72 %757 мм1.3 м/с2 %
    06:00Ясно и безоблачно+12°C74 %757 мм1.3 м/с2 %
    09:00Ясно и безоблачно+18°C66 %757 мм2.0 м/с2 %
    12:00Ясно и безоблачно+23°C52 %757 мм3.0 м/с1 %
    15:00Практически безоблачно+25°C43 %756 мм3.1 м/с4 %
    18:00Практически безоблачно+24°C44 %755 мм2.5 м/с14 %
    21:00Практически безоблачно+20°C73 %755 мм1.1 м/с4 %
  • 26мая
    Воскресенье
    +12°
    +25°
    Ясно и безоблачно
    ВремяПогодаТемператураВлажностьДавлениеВетер, м/сВероятность осадков
    00:00Ясно и безоблачно+15°C76 %755 мм0.9 м/с2 %
    03:00Ясно и безоблачно+13°C71 %755 мм0.7 м/с3 %
    06:00Ясно и безоблачно+13°C74 %755 мм0.8 м/с4 %
    09:00Ясно и безоблачно+18°C61 %756 мм0.9 м/с4 %
    12:00Ясно и безоблачно+23°C42 %756 мм2.1 м/с2 %
    15:00Ясно и безоблачно+25°C41 %756 мм2.1 м/с4 %
    18:00Практически безоблачно+25°C42 %755 мм1.4 м/с4 %
    21:00Ясно и безоблачно+21°C63 %755 мм0.6 м/с2 %
  • 27мая
    Понедельник
    +13°
    +27°
    Ясно и безоблачно
    ВремяПогодаТемператураВлажностьДавлениеВетер, м/сВероятность осадков
    00:00Ясно и безоблачно+14°C77 %756 мм0.3 м/с2 %
    03:00Ясно и безоблачно+12°C88 %756 мм0.5 м/с2 %
    06:00Ясно и безоблачно+13°C87 %756 мм0.3 м/с3 %
    09:00Ясно и безоблачно+20°C63 %757 мм0.7 м/с2 %
    12:00Практически безоблачно+25°C39 %757 мм2.0 м/с12 %
    15:00Ясно и безоблачно+26°C38 %756 мм2.1 м/с23 %
    18:00Практически безоблачно+25°C41 %756 мм1.6 м/с28 %
    21:00Ясно и безоблачно+21°C64 %755 мм1.1 м/с7 %
Мы используем cookies
Соглашаюсь